Time;durP1;ratioP1;P1;durP2;ratioP2;P2;SDS_P1;SDS_P2;PMS_P1;PMS_P2;Temp;Humidity;BMP_temperature;BMP_pressure;BME280_temperature;BME280_humidity;BME280_pressure;Samples;Min_cycle;Max_cycle;Signal;HPM_P1;HPM_P2
2024/01/20 00:00:46;;;;;;;18.95;9.75;;;-1.30;99.90;;;;;;2097209;28;20569;-73
2024/01/20 00:01:47;;;;;;;20.88;9.38;;;-1.30;99.90;;;;;;2085626;28;20029;-73
2024/01/20 00:02:47;;;;;;;19.38;9.48;;;-1.40;99.90;;;;;;2087987;28;20025;-73
2024/01/20 00:03:48;;;;;;;17.80;9.10;;;-1.40;99.90;;;;;;2087584;28;20531;-73
2024/01/20 00:04:49;;;;;;;23.65;8.95;;;-1.50;99.90;;;;;;2074813;28;20087;-72
2024/01/20 00:05:49;;;;;;;22.85;9.60;;;-1.50;99.90;;;;;;2077178;28;20021;-72
2024/01/20 00:06:50;;;;;;;22.70;9.50;;;-1.50;99.90;;;;;;2085340;28;20470;-73
2024/01/20 00:07:50;;;;;;;19.98;9.13;;;-1.50;99.90;;;;;;2081757;28;20033;-73
2024/01/20 00:08:51;;;;;;;20.45;9.60;;;-1.50;99.90;;;;;;2087163;28;20414;-73
2024/01/20 00:09:51;;;;;;;21.40;9.52;;;-1.60;99.90;;;;;;2078344;28;20033;-72
2024/01/20 00:10:52;;;;;;;18.27;9.25;;;-1.60;99.90;;;;;;2094201;28;20032;-71
2024/01/20 00:11:53;;;;;;;20.00;10.07;;;-1.60;99.90;;;;;;2075146;28;20044;-73
2024/01/20 00:12:53;;;;;;;19.42;9.25;;;-1.60;99.90;;;;;;2098403;28;20065;-73
2024/01/20 00:14:01;;;;;;;18.92;9.38;;;-1.60;99.90;;;;;;2092351;28;20488;-72
2024/01/20 00:15:01;;;;;;;18.38;9.38;;;-1.60;99.90;;;;;;2084978;28;20031;-72
2024/01/20 00:16:02;;;;;;;20.77;9.93;;;-1.60;99.90;;;;;;2084609;28;20059;-72
2024/01/20 00:17:03;;;;;;;20.70;9.55;;;-1.50;99.90;;;;;;2083595;28;20258;-71
2024/01/20 00:18:07;;;;;;;22.73;8.82;;;-1.50;99.90;;;;;;2091928;28;20032;-75
2024/01/20 00:19:07;;;;;;;20.90;9.10;;;-1.50;99.90;;;;;;2092681;28;20012;-72
2024/01/20 00:20:09;;;;;;;21.33;9.25;;;-1.50;99.90;;;;;;2092693;28;20024;-73
2024/01/20 00:21:10;;;;;;;21.90;9.30;;;-1.50;99.90;;;;;;2091136;28;20087;-73
2024/01/20 00:22:10;;;;;;;20.38;9.20;;;-1.50;99.90;;;;;;2101186;28;20456;-72
2024/01/20 00:23:11;;;;;;;20.02;8.65;;;-1.50;99.90;;;;;;2085428;28;20017;-74
2024/01/20 00:24:12;;;;;;;21.73;9.45;;;-1.50;99.90;;;;;;2082690;28;20068;-75
2024/01/20 00:25:13;;;;;;;19.35;9.10;;;-1.50;99.90;;;;;;2085920;28;20056;-72
2024/01/20 00:26:14;;;;;;;16.95;9.20;;;-1.50;99.90;;;;;;2087955;28;20040;-74
2024/01/20 00:27:14;;;;;;;17.95;8.75;;;-1.50;99.90;;;;;;2088104;28;20029;-74
2024/01/20 00:28:17;;;;;;;19.55;8.77;;;-1.50;99.90;;;;;;2080079;28;20025;-73
2024/01/20 00:29:18;;;;;;;16.52;8.32;;;-1.50;99.90;;;;;;2095926;28;20035;-74
2024/01/20 00:30:18;;;;;;;18.30;8.63;;;-1.40;99.90;;;;;;2088089;28;20032;-74
2024/01/20 00:31:19;;;;;;;18.40;8.10;;;-1.50;99.90;;;;;;2088851;28;20465;-72
2024/01/20 00:32:19;;;;;;;19.75;8.77;;;-1.40;99.90;;;;;;2090276;28;20122;-72
2024/01/20 00:33:20;;;;;;;18.80;8.85;;;-1.40;99.90;;;;;;2096001;28;20029;-72
2024/01/20 00:34:21;;;;;;;20.00;8.65;;;-1.40;99.90;;;;;;2088596;28;20032;-71
2024/01/20 00:35:22;;;;;;;22.85;8.70;;;-1.40;99.90;;;;;;2078841;28;20026;-73
2024/01/20 00:36:22;;;;;;;18.88;8.20;;;-1.40;99.90;;;;;;2087247;28;20505;-72
2024/01/20 00:37:23;;;;;;;20.20;8.80;;;-1.40;99.90;;;;;;2079656;28;20037;-72
2024/01/20 00:38:25;;;;;;;20.58;9.32;;;-1.40;99.90;;;;;;2089093;28;20059;-72
2024/01/20 00:39:26;;;;;;;21.60;8.68;;;-1.40;99.90;;;;;;2088592;28;20107;-72
2024/01/20 00:40:27;;;;;;;18.15;8.52;;;-1.40;99.90;;;;;;2081401;28;20032;-74
2024/01/20 00:41:27;;;;;;;18.27;8.30;;;-1.30;99.90;;;;;;2087840;28;20039;-71
2024/01/20 00:42:28;;;;;;;19.48;8.80;;;-1.30;99.90;;;;;;2097232;28;20624;-72
2024/01/20 00:43:29;;;;;;;19.20;8.32;;;-1.30;99.90;;;;;;2099852;28;20035;-72
2024/01/20 00:44:29;;;;;;;17.02;8.45;;;-1.30;99.90;;;;;;2103903;28;20120;-72
2024/01/20 00:45:45;;;;;;;17.38;8.00;;;-1.30;99.90;;;;;;2099908;28;20115;-73
2024/01/20 00:46:46;;;;;;;19.38;8.77;;;-1.30;99.90;;;;;;2100064;28;20532;-73
2024/01/20 00:47:47;;;;;;;17.88;8.32;;;-1.20;99.90;;;;;;2089809;28;20039;-73
2024/01/20 00:48:47;;;;;;;20.88;8.70;;;-1.30;99.90;;;;;;2088012;28;20031;-72
2024/01/20 00:49:48;;;;;;;16.80;8.55;;;-1.20;99.90;;;;;;2090392;28;20036;-74
2024/01/20 00:50:48;;;;;;;19.45;8.77;;;-1.30;99.90;;;;;;2088710;28;20028;-73
2024/01/20 00:51:49;;;;;;;21.30;8.82;;;-1.30;99.90;;;;;;2095133;28;20035;-74
2024/01/20 00:52:50;;;;;;;16.20;8.68;;;-1.30;99.90;;;;;;2097927;28;20059;-73
2024/01/20 00:53:51;;;;;;;18.38;8.70;;;-1.30;99.90;;;;;;2089278;28;20486;-74
2024/01/20 00:54:52;;;;;;;20.02;8.68;;;-1.30;99.90;;;;;;2090088;28;20163;-73
2024/01/20 00:55:52;;;;;;;17.73;8.38;;;-1.30;99.90;;;;;;2098481;28;20076;-73
2024/01/20 00:56:53;;;;;;;18.45;8.45;;;-1.20;99.90;;;;;;2090488;28;20025;-73
2024/01/20 00:57:53;;;;;;;17.95;8.43;;;-1.20;99.90;;;;;;2090548;28;20028;-73
2024/01/20 00:58:54;;;;;;;17.55;8.50;;;-1.20;99.90;;;;;;2080589;28;20036;-73
2024/01/20 00:59:56;;;;;;;17.73;8.63;;;-1.20;99.90;;;;;;2079044;28;20025;-72
2024/01/20 01:00:56;;;;;;;20.25;8.60;;;-1.20;99.90;;;;;;2098090;28;20517;-72
2024/01/20 01:02:09;;;;;;;20.02;8.52;;;-1.20;99.90;;;;;;2094168;28;20020;-73
2024/01/20 01:03:10;;;;;;;19.80;8.88;;;-1.20;99.90;;;;;;2101561;28;20580;-73
2024/01/20 01:04:10;;;;;;;16.75;8.82;;;-1.30;99.90;;;;;;2089911;28;20226;-73
2024/01/20 01:05:11;;;;;;;19.52;8.63;;;-1.30;99.90;;;;;;2090013;28;20087;-73
2024/01/20 01:06:12;;;;;;;19.35;8.60;;;-1.30;99.90;;;;;;2086596;28;20048;-73
2024/01/20 01:07:12;;;;;;;16.88;8.57;;;-1.40;99.90;;;;;;2092620;28;20482;-73
2024/01/20 01:08:13;;;;;;;19.30;8.80;;;-1.30;99.90;;;;;;2085316;28;20756;-73
2024/01/20 01:09:14;;;;;;;19.83;8.65;;;-1.30;99.90;;;;;;2079674;28;20040;-73
2024/01/20 01:10:15;;;;;;;18.15;8.68;;;-1.40;99.90;;;;;;2078623;28;20061;-73
2024/01/20 01:11:15;;;;;;;17.52;8.52;;;-1.40;99.90;;;;;;2080374;28;20455;-73
2024/01/20 01:12:16;;;;;;;19.92;8.02;;;-1.40;99.90;;;;;;2079737;28;20048;-73
2024/01/20 01:13:17;;;;;;;18.65;8.45;;;-1.30;99.90;;;;;;2077171;28;20034;-73
2024/01/20 01:14:17;;;;;;;16.25;8.45;;;-1.30;99.90;;;;;;2097154;28;20048;-74
2024/01/20 01:15:18;;;;;;;17.55;8.32;;;-1.20;99.90;;;;;;2096767;28;20107;-73
2024/01/20 01:16:19;;;;;;;20.08;8.57;;;-1.20;99.90;;;;;;2088802;28;20034;-73
2024/01/20 01:17:20;;;;;;;18.02;8.40;;;-1.20;99.90;;;;;;2072741;28;20538;-73
2024/01/20 01:18:21;;;;;;;17.70;8.30;;;-1.30;99.90;;;;;;2077956;28;20026;-73
2024/01/20 01:19:22;;;;;;;22.17;9.02;;;-1.30;99.90;;;;;;2096996;28;20027;-72
2024/01/20 01:20:30;;;;;;;15.15;8.15;;;-1.30;99.90;;;;;;2089528;28;20034;-72
2024/01/20 01:21:31;;;;;;;17.98;8.25;;;-1.30;99.90;;;;;;2100406;28;20113;-72
2024/01/20 01:22:32;;;;;;;17.58;8.45;;;-1.40;99.90;;;;;;2097209;28;20081;-71
2024/01/20 01:23:32;;;;;;;17.23;8.10;;;-1.40;99.90;;;;;;2084320;28;20029;-72
2024/01/20 01:24:33;;;;;;;17.55;7.72;;;-1.40;99.90;;;;;;2085534;28;20033;-73
2024/01/20 01:25:33;;;;;;;18.67;8.70;;;-1.50;99.90;;;;;;2084379;28;20036;-72
2024/01/20 01:26:34;;;;;;;17.15;7.90;;;-1.40;99.90;;;;;;2094904;28;20060;-72
2024/01/20 01:27:35;;;;;;;17.65;8.10;;;-1.40;99.90;;;;;;2088589;28;20052;-71
2024/01/20 01:28:36;;;;;;;18.88;8.18;;;-1.40;99.90;;;;;;2079719;28;20033;-72
2024/01/20 01:29:36;;;;;;;18.45;7.90;;;-1.40;99.90;;;;;;2094744;28;20040;-72
2024/01/20 01:30:37;;;;;;;18.70;8.32;;;-1.40;99.90;;;;;;2081864;28;20028;-72
2024/01/20 01:31:39;;;;;;;18.15;8.40;;;-1.40;99.90;;;;;;2086920;28;20108;-73
2024/01/20 01:32:39;;;;;;;16.08;8.02;;;-1.40;99.90;;;;;;2068572;28;20041;-73
2024/01/20 01:33:40;;;;;;;15.93;7.80;;;-1.50;99.90;;;;;;2076993;28;20517;-72
2024/01/20 01:34:41;;;;;;;20.35;8.38;;;-1.50;99.90;;;;;;2083653;28;20048;-72
2024/01/20 01:35:41;;;;;;;18.10;8.65;;;-1.50;99.90;;;;;;2083142;28;20040;-72
2024/01/20 01:36:42;;;;;;;17.05;8.57;;;-1.60;99.90;;;;;;2091200;28;20039;-72
2024/01/20 01:37:43;;;;;;;18.15;8.20;;;-1.50;99.90;;;;;;2076403;28;20029;-72
2024/01/20 01:38:44;;;;;;;18.92;8.13;;;-1.50;99.90;;;;;;2088721;28;20920;-73
2024/01/20 01:39:44;;;;;;;20.70;8.38;;;-1.40;99.90;;;;;;2087187;28;20034;-72
2024/01/20 01:40:45;;;;;;;14.15;7.70;;;-1.40;99.90;;;;;;2094289;28;20514;-71
2024/01/20 01:41:46;;;;;;;16.48;8.13;;;-1.40;99.90;;;;;;2093950;28;20032;-73
2024/01/20 01:42:46;;;;;;;17.95;8.30;;;-1.40;99.90;;;;;;2093911;28;20036;-74
2024/01/20 01:43:56;;;;;;;16.88;7.90;;;-1.40;99.90;;;;;;2084430;28;20450;-74
2024/01/20 01:44:56;;;;;;;18.33;7.78;;;-1.40;99.90;;;;;;2090602;28;20024;-72
2024/01/20 01:45:57;;;;;;;16.27;8.60;;;-1.40;99.90;;;;;;2088861;28;20041;-72
2024/01/20 01:46:58;;;;;;;16.75;8.07;;;-1.30;99.90;;;;;;2096299;28;20033;-72
2024/01/20 01:47:58;;;;;;;16.60;8.10;;;-1.40;99.90;;;;;;2079725;28;20025;-72
2024/01/20 01:48:59;;;;;;;14.15;7.80;;;-1.40;99.90;;;;;;2081130;28;20049;-72
2024/01/20 01:50:01;;;;;;;17.23;7.63;;;-1.40;99.90;;;;;;2084633;28;20422;-72
2024/01/20 01:51:04;;;;;;;17.60;8.50;;;-1.40;99.90;;;;;;2093973;28;20123;-72
2024/01/20 01:52:05;;;;;;;18.05;8.00;;;-1.30;99.90;;;;;;2085680;28;20033;-74
2024/01/20 01:53:06;;;;;;;17.17;8.25;;;-1.40;99.90;;;;;;2079397;28;20596;-74
2024/01/20 01:54:08;;;;;;;17.52;8.60;;;-1.30;99.90;;;;;;2082072;28;20032;-73
2024/01/20 01:55:09;;;;;;;17.42;8.55;;;-1.30;99.90;;;;;;2077177;28;20037;-74
2024/01/20 01:56:13;;;;;;;19.70;8.30;;;-1.40;99.90;;;;;;2088560;28;20033;-73
2024/01/20 01:57:16;;;;;;;16.50;8.60;;;-1.30;99.90;;;;;;2086724;28;20112;-73
2024/01/20 01:58:17;;;;;;;17.52;8.18;;;-1.30;99.90;;;;;;2086652;28;20033;-73
2024/01/20 01:59:18;;;;;;;19.17;8.77;;;-1.40;99.90;;;;;;2093281;28;20036;-73
2024/01/20 02:00:19;;;;;;;15.68;7.93;;;-1.40;99.90;;;;;;2094061;28;20028;-73
2024/01/20 02:01:20;;;;;;;18.73;8.48;;;-1.30;99.90;;;;;;2084126;28;20570;-75
2024/01/20 02:02:20;;;;;;;15.52;8.60;;;-1.30;99.90;;;;;;2084310;28;20523;-74
2024/01/20 02:03:22;;;;;;;20.77;8.65;;;-1.40;99.90;;;;;;2084694;28;20025;-73
2024/01/20 02:04:22;;;;;;;16.08;8.32;;;-1.40;99.90;;;;;;2083645;28;20032;-73
2024/01/20 02:05:23;;;;;;;15.50;7.78;;;-1.40;99.90;;;;;;2096331;28;20062;-74
2024/01/20 02:06:24;;;;;;;15.85;8.43;;;-1.30;99.90;;;;;;2089489;28;20116;-73
2024/01/20 02:07:26;;;;;;;18.45;8.40;;;-1.30;99.90;;;;;;2089325;28;20372;-71
2024/01/20 02:08:28;;;;;;;17.58;8.27;;;-1.30;99.90;;;;;;2080290;28;20026;-74
2024/01/20 02:09:29;;;;;;;18.65;8.60;;;-1.30;99.90;;;;;;2084586;28;20021;-74
2024/01/20 02:10:31;;;;;;;20.30;8.40;;;-1.30;99.90;;;;;;2081200;28;20108;-74
2024/01/20 02:11:32;;;;;;;18.48;8.02;;;-1.30;99.90;;;;;;2085283;28;20103;-72
2024/01/20 02:12:34;;;;;;;19.17;8.85;;;-1.30;99.90;;;;;;2096325;28;20028;-72
2024/01/20 02:13:35;;;;;;;18.20;8.18;;;-1.40;99.90;;;;;;2084821;28;20029;-72
2024/01/20 02:14:36;;;;;;;19.25;8.45;;;-1.40;99.90;;;;;;2078972;28;20137;-72
2024/01/20 02:15:37;;;;;;;19.48;9.30;;;-1.40;99.90;;;;;;2084044;28;20062;-72
2024/01/20 02:16:37;;;;;;;16.67;8.93;;;-1.40;99.90;;;;;;2090333;28;20727;-72
2024/01/20 02:17:50;;;;;;;18.73;8.63;;;-1.40;99.90;;;;;;2094222;28;20491;-72
2024/01/20 02:18:51;;;;;;;19.75;9.30;;;-1.40;99.90;;;;;;2085653;28;20029;-72
2024/01/20 02:19:51;;;;;;;17.13;8.20;;;-1.40;99.90;;;;;;2088213;28;20716;-72
2024/01/20 02:20:53;;;;;;;21.27;9.02;;;-1.40;99.90;;;;;;2085544;28;20029;-74
2024/01/20 02:21:53;;;;;;;19.00;9.00;;;-1.40;99.90;;;;;;2087441;28;20024;-73
2024/01/20 02:22:54;;;;;;;15.38;8.70;;;-1.40;99.90;;;;;;2092480;28;20151;-73
2024/01/20 02:24:05;;;;;;;16.60;9.05;;;-1.40;99.90;;;;;;2091944;28;20029;-73
2024/01/20 02:25:06;;;;;;;17.65;8.93;;;-1.40;99.90;;;;;;2086917;28;20419;-74
2024/01/20 02:26:07;;;;;;;18.73;8.43;;;-1.40;99.90;;;;;;2096480;28;20111;-73
2024/01/20 02:27:09;;;;;;;17.38;8.43;;;-1.40;99.90;;;;;;2091943;28;20032;-74
2024/01/20 02:28:09;;;;;;;15.82;8.48;;;-1.30;99.90;;;;;;2087196;28;20108;-74
2024/01/20 02:29:12;;;;;;;15.93;8.45;;;-1.40;99.90;;;;;;2082963;28;20033;-73
2024/01/20 02:30:12;;;;;;;19.45;9.07;;;-1.30;99.90;;;;;;2101128;28;20038;-73
2024/01/20 02:31:13;;;;;;;19.13;8.15;;;-1.30;99.90;;;;;;2081336;28;20632;-73
2024/01/20 02:32:13;;;;;;;19.00;9.43;;;-1.30;99.90;;;;;;2072739;28;20057;-71
2024/01/20 02:33:14;;;;;;;18.67;8.65;;;-1.30;99.90;;;;;;2084298;28;20583;-73
2024/01/20 02:34:15;;;;;;;17.55;8.52;;;-1.30;99.90;;;;;;2083878;28;20068;-73
2024/01/20 02:35:18;;;;;;;17.17;8.93;;;-1.20;99.90;;;;;;2074282;28;20110;-73
2024/01/20 02:36:19;;;;;;;19.27;9.15;;;-1.20;99.90;;;;;;2082414;28;20032;-73
2024/01/20 02:37:20;;;;;;;17.67;8.90;;;-1.20;99.90;;;;;;2081987;28;20025;-72
2024/01/20 02:38:20;;;;;;;18.20;8.82;;;-1.20;99.90;;;;;;2086051;28;20529;-72
2024/01/20 02:39:21;;;;;;;19.00;9.00;;;-1.30;99.90;;;;;;2086135;28;20044;-73
2024/01/20 02:40:22;;;;;;;21.70;9.13;;;-1.30;99.90;;;;;;2093904;28;20031;-69
2024/01/20 02:41:22;;;;;;;15.55;8.07;;;-1.30;99.90;;;;;;2086505;28;20625;-70
2024/01/20 02:42:23;;;;;;;16.95;8.88;;;-1.30;99.90;;;;;;2073437;28;20504;-69
2024/01/20 02:43:24;;;;;;;15.00;8.50;;;-1.30;99.90;;;;;;2088193;28;20739;-70
2024/01/20 02:44:24;;;;;;;16.58;8.57;;;-1.30;99.90;;;;;;2094805;28;20028;-69
2024/01/20 02:45:25;;;;;;;18.35;8.30;;;-1.30;99.90;;;;;;2102105;28;20096;-69
2024/01/20 02:46:31;;;;;;;16.42;8.40;;;-1.30;99.90;;;;;;2084265;28;20078;-69
2024/01/20 02:47:31;;;;;;;18.13;8.98;;;-1.40;99.90;;;;;;2076753;28;20036;-70
2024/01/20 02:48:32;;;;;;;18.42;8.70;;;-1.40;99.90;;;;;;2088083;28;20036;-70
2024/01/20 02:49:34;;;;;;;18.27;8.93;;;-1.50;99.90;;;;;;2075813;28;20021;-69
2024/01/20 02:50:35;;;;;;;19.45;9.10;;;-1.50;99.90;;;;;;2075770;28;20487;-70
2024/01/20 02:51:35;;;;;;;17.48;8.70;;;-1.50;99.90;;;;;;2068910;28;20029;-69
2024/01/20 02:52:36;;;;;;;16.25;8.40;;;-1.50;99.90;;;;;;2074688;28;20104;-69
2024/01/20 02:53:37;;;;;;;18.52;8.70;;;-1.60;99.90;;;;;;2079607;28;20056;-70
2024/01/20 02:54:37;;;;;;;15.25;8.60;;;-1.60;99.90;;;;;;2092265;28;20572;-69
2024/01/20 02:55:38;;;;;;;16.15;8.48;;;-1.60;99.90;;;;;;2091797;28;20033;-70
2024/01/20 02:56:38;;;;;;;19.50;9.13;;;-1.60;99.90;;;;;;2089085;28;20105;-69
2024/01/20 02:57:39;;;;;;;14.05;8.23;;;-1.60;99.90;;;;;;2089460;28;20024;-69
2024/01/20 02:58:40;;;;;;;16.63;8.93;;;-1.50;99.90;;;;;;2084331;28;20514;-69
2024/01/20 02:59:40;;;;;;;16.48;8.75;;;-1.50;99.90;;;;;;2083371;28;20543;-70
2024/01/20 03:00:41;;;;;;;15.90;8.45;;;-1.60;99.90;;;;;;2087213;28;20045;-69
2024/01/20 03:01:41;;;;;;;17.58;9.02;;;-1.60;99.90;;;;;;2087792;28;20041;-69
2024/01/20 03:02:42;;;;;;;16.73;8.77;;;-1.70;99.90;;;;;;2080320;28;20410;-70
2024/01/20 03:03:44;;;;;;;18.05;8.80;;;-1.70;99.90;;;;;;2078596;28;20838;-69
2024/01/20 03:04:45;;;;;;;18.90;9.27;;;-1.70;99.90;;;;;;2079877;28;20033;-68
2024/01/20 03:05:46;;;;;;;15.57;8.80;;;-1.80;99.90;;;;;;2082787;28;20537;-70
2024/01/20 03:06:46;;;;;;;16.25;8.57;;;-1.90;99.90;;;;;;2088078;28;20076;-69
2024/01/20 03:07:47;;;;;;;16.77;9.40;;;-1.90;99.90;;;;;;2075695;28;20459;-71
2024/01/20 03:08:48;;;;;;;20.38;9.60;;;-1.90;99.90;;;;;;2083643;28;20087;-70
2024/01/20 03:09:48;;;;;;;17.73;9.32;;;-1.90;99.90;;;;;;2090620;28;20107;-70
2024/01/20 03:10:49;;;;;;;17.98;9.15;;;-2.00;99.90;;;;;;2089785;28;20039;-69
2024/01/20 03:11:49;;;;;;;14.48;9.07;;;-2.00;99.90;;;;;;2083792;28;20569;-69
2024/01/20 03:12:50;;;;;;;17.33;8.65;;;-1.90;99.90;;;;;;2090716;28;20033;-69
2024/01/20 03:13:51;;;;;;;17.27;8.68;;;-1.90;99.90;;;;;;2080682;28;20079;-69
2024/01/20 03:14:51;;;;;;;16.05;8.60;;;-2.00;99.90;;;;;;2081895;28;20044;-70
2024/01/20 03:15:52;;;;;;;17.55;8.38;;;-2.00;99.90;;;;;;2100487;28;20047;-69
2024/01/20 03:17:08;;;;;;;18.88;9.27;;;-2.10;99.90;;;;;;2090333;28;20044;-69
2024/01/20 03:18:10;;;;;;;16.80;8.68;;;-2.10;99.90;;;;;;2085475;28;20025;-69
2024/01/20 03:19:11;;;;;;;15.30;8.48;;;-2.10;99.90;;;;;;2084132;28;20094;-69
2024/01/20 03:20:12;;;;;;;15.98;8.43;;;-2.00;99.90;;;;;;2075706;28;20052;-69
2024/01/20 03:21:13;;;;;;;12.75;8.23;;;-2.00;99.90;;;;;;2079328;28;20089;-69
2024/01/20 03:22:13;;;;;;;16.33;8.40;;;-1.90;99.90;;;;;;2087923;28;20052;-69
2024/01/20 03:23:14;;;;;;;15.35;8.15;;;-1.90;99.90;;;;;;2079146;28;20013;-69
2024/01/20 03:24:19;;;;;;;15.38;8.40;;;-1.80;99.90;;;;;;2078734;28;20690;-69
2024/01/20 03:25:19;;;;;;;15.65;8.23;;;-1.70;99.90;;;;;;2085131;28;20036;-69
2024/01/20 03:26:20;;;;;;;16.17;8.15;;;-1.70;99.90;;;;;;2095779;28;20032;-69
2024/01/20 03:27:21;;;;;;;15.52;8.73;;;-1.70;99.90;;;;;;2085408;28;20125;-70
2024/01/20 03:28:21;;;;;;;14.80;8.30;;;-1.70;99.90;;;;;;2083873;28;20661;-70
2024/01/20 03:29:22;;;;;;;16.33;8.52;;;-1.70;99.90;;;;;;2088296;28;20102;-69
2024/01/20 03:30:23;;;;;;;18.30;8.93;;;-1.70;99.90;;;;;;2093090;28;20514;-69
2024/01/20 03:31:24;;;;;;;16.85;8.38;;;-1.70;99.90;;;;;;2084585;28;20017;-69
2024/01/20 03:32:24;;;;;;;17.50;8.55;;;-1.60;99.90;;;;;;2075324;28;20551;-69
2024/01/20 03:33:25;;;;;;;14.68;8.02;;;-1.60;99.90;;;;;;2077467;28;20025;-70
2024/01/20 03:34:26;;;;;;;17.65;9.15;;;-1.60;99.90;;;;;;2092206;28;20028;-71
2024/01/20 03:35:26;;;;;;;19.63;8.60;;;-1.60;99.90;;;;;;2082194;28;20136;-70
2024/01/20 03:36:27;;;;;;;14.80;8.35;;;-1.60;99.90;;;;;;2084706;28;20052;-69
2024/01/20 03:37:29;;;;;;;17.13;8.65;;;-1.60;99.90;;;;;;2085499;28;20025;-70
2024/01/20 03:38:30;;;;;;;15.65;8.52;;;-1.50;99.90;;;;;;2094291;28;20613;-71
2024/01/20 03:39:30;;;;;;;16.67;8.43;;;-1.60;99.90;;;;;;2081745;28;20024;-70
2024/01/20 03:40:31;;;;;;;15.35;8.73;;;-1.60;99.90;;;;;;2079342;28;20025;-74
2024/01/20 03:41:32;;;;;;;18.30;9.00;;;-1.70;99.90;;;;;;2084561;28;20123;-74
2024/01/20 03:42:32;;;;;;;15.40;8.43;;;-1.70;99.90;;;;;;2090201;28;20032;-73
2024/01/20 03:43:33;;;;;;;18.50;9.20;;;-1.70;99.90;;;;;;2091071;28;20564;-74
2024/01/20 03:44:34;;;;;;;16.63;8.20;;;-1.80;99.90;;;;;;2089215;28;20533;-73
2024/01/20 03:45:34;;;;;;;16.67;8.63;;;-1.80;99.90;;;;;;2096521;28;20043;-75
2024/01/20 03:46:41;;;;;;;17.88;8.52;;;-1.80;99.90;;;;;;2101342;28;20052;-75
2024/01/20 03:47:41;;;;;;;15.73;8.00;;;-1.80;99.90;;;;;;2088503;28;20025;-73
2024/01/20 03:48:42;;;;;;;15.30;8.20;;;-1.70;99.90;;;;;;2082660;28;20056;-73
2024/01/20 03:49:42;;;;;;;18.13;8.60;;;-1.70;99.90;;;;;;2084385;28;20029;-73
2024/01/20 03:50:43;;;;;;;16.30;8.82;;;-1.60;99.90;;;;;;2086939;28;20473;-73
2024/01/20 03:51:43;;;;;;;17.15;9.00;;;-1.60;99.90;;;;;;2082713;28;20083;-73
2024/01/20 03:52:44;;;;;;;13.93;8.27;;;-1.60;99.90;;;;;;2075610;28;20029;-72
2024/01/20 03:53:45;;;;;;;14.70;8.13;;;-1.60;99.90;;;;;;2093677;28;20032;-73
2024/01/20 03:54:45;;;;;;;15.43;8.68;;;-1.70;99.90;;;;;;2095585;28;20490;-73
2024/01/20 03:55:46;;;;;;;16.45;8.45;;;-1.70;99.90;;;;;;2086265;28;20028;-71
2024/01/20 03:56:46;;;;;;;14.85;8.77;;;-1.70;99.90;;;;;;2092048;28;20025;-80
2024/01/20 03:57:47;;;;;;;16.38;8.82;;;-1.70;99.90;;;;;;2088432;28;20028;-72
2024/01/20 03:58:48;;;;;;;19.25;8.68;;;-1.80;99.90;;;;;;2087762;28;20037;-78
2024/01/20 03:59:49;;;;;;;13.50;7.78;;;-1.80;99.90;;;;;;2075874;28;20032;-80
2024/01/20 04:00:50;;;;;;;14.35;8.57;;;-1.80;99.90;;;;;;2084598;28;20030;-73
2024/01/20 04:01:50;;;;;;;15.13;8.75;;;-1.70;99.90;;;;;;2086587;28;20498;-73
2024/01/20 04:02:51;;;;;;;18.25;8.60;;;-1.80;99.90;;;;;;2096127;28;20021;-73
2024/01/20 04:03:52;;;;;;;14.63;8.50;;;-1.80;99.90;;;;;;2090023;28;20124;-73
2024/01/20 04:04:52;;;;;;;13.57;7.80;;;-1.80;99.90;;;;;;2087866;28;20407;-73
2024/01/20 04:05:53;;;;;;;15.38;8.45;;;-1.90;99.90;;;;;;2088538;28;20029;-74
2024/01/20 04:06:53;;;;;;;15.32;8.45;;;-1.80;99.90;;;;;;2094698;28;20028;-74
2024/01/20 04:07:54;;;;;;;16.15;8.68;;;-1.80;99.90;;;;;;2087755;28;20028;-74
2024/01/20 04:08:55;;;;;;;16.58;8.70;;;-1.80;99.90;;;;;;2088004;28;20051;-74
2024/01/20 04:09:55;;;;;;;16.20;8.98;;;-1.90;99.90;;;;;;2102525;28;20540;-74
2024/01/20 04:10:56;;;;;;;14.77;8.20;;;-1.90;99.90;;;;;;2089047;28;20032;-73
2024/01/20 04:11:57;;;;;;;15.98;8.98;;;-1.90;99.90;;;;;;2092401;28;20115;-74
2024/01/20 04:12:57;;;;;;;16.65;8.45;;;-1.90;99.90;;;;;;2077218;28;20067;-74
2024/01/20 04:13:58;;;;;;;17.45;9.55;;;-1.90;99.90;;;;;;2085372;28;20492;-73
2024/01/20 04:14:58;;;;;;;19.48;9.70;;;-1.90;99.90;;;;;;2083974;28;20040;-73
2024/01/20 04:15:59;;;;;;;16.20;9.45;;;-2.00;99.90;;;;;;2091798;28;20401;-73
2024/01/20 04:16:59;;;;;;;17.20;9.18;;;-2.00;99.90;;;;;;2093342;28;20024;-73
2024/01/20 04:18:00;;;;;;;16.60;8.65;;;-2.00;99.90;;;;;;2074089;28;20041;-73
2024/01/20 04:19:00;;;;;;;15.45;8.60;;;-2.00;99.90;;;;;;2085745;28;20047;-73
2024/01/20 04:20:02;;;;;;;15.48;9.00;;;-2.00;99.90;;;;;;2093192;28;20069;-73
2024/01/20 04:21:03;;;;;;;17.92;9.27;;;-2.00;99.90;;;;;;2080444;28;20107;-73
2024/01/20 04:22:03;;;;;;;16.98;9.13;;;-2.00;99.90;;;;;;2080665;28;20095;-73
2024/01/20 04:23:04;;;;;;;16.27;9.07;;;-2.00;99.90;;;;;;2075653;28;20057;-73
2024/01/20 04:24:05;;;;;;;17.95;8.98;;;-2.00;99.90;;;;;;2086403;28;20036;-72
2024/01/20 04:25:06;;;;;;;15.15;8.32;;;-1.90;99.90;;;;;;2085048;28;20621;-73
2024/01/20 04:26:07;;;;;;;16.35;8.88;;;-1.90;99.90;;;;;;2087178;28;20104;-75
2024/01/20 04:27:08;;;;;;;16.48;8.80;;;-1.90;99.90;;;;;;2088045;28;20491;-72
2024/01/20 04:28:08;;;;;;;18.15;8.55;;;-1.80;99.90;;;;;;2096339;28;20051;-72
2024/01/20 04:29:09;;;;;;;16.92;8.93;;;-1.70;99.90;;;;;;2096723;28;20486;-73
2024/01/20 04:30:11;;;;;;;20.77;9.60;;;-1.70;99.90;;;;;;2090118;28;20421;-73
2024/01/20 04:31:12;;;;;;;17.02;8.70;;;-1.80;99.90;;;;;;2087711;28;20037;-73
2024/01/20 04:32:13;;;;;;;18.27;9.07;;;-1.80;99.90;;;;;;2075623;28;20464;-74
2024/01/20 04:33:13;;;;;;;17.25;9.05;;;-1.80;99.90;;;;;;2079048;28;20613;-73
2024/01/20 04:34:14;;;;;;;16.30;8.90;;;-1.80;99.90;;;;;;2091990;28;20164;-74
2024/01/20 04:35:15;;;;;;;16.40;8.18;;;-1.80;99.90;;;;;;2079399;28;20026;-74
2024/01/20 04:36:15;;;;;;;16.13;8.45;;;-1.80;99.90;;;;;;2074331;28;20029;-73
2024/01/20 04:37:16;;;;;;;15.00;8.70;;;-1.70;99.90;;;;;;2085602;28;20518;-73
2024/01/20 04:38:16;;;;;;;15.63;8.80;;;-1.80;99.90;;;;;;2088629;28;20029;-74
2024/01/20 04:39:17;;;;;;;18.80;9.13;;;-1.70;99.90;;;;;;2097740;28;20031;-74
2024/01/20 04:40:17;;;;;;;15.75;8.48;;;-1.70;99.90;;;;;;2098437;28;20029;-74
2024/01/20 04:41:18;;;;;;;14.07;8.52;;;-1.70;99.90;;;;;;2092474;28;20569;-74
2024/01/20 04:42:25;;;;;;;15.55;8.90;;;-1.70;99.90;;;;;;2078831;28;20757;-74
2024/01/20 04:43:27;;;;;;;18.02;8.73;;;-1.70;99.90;;;;;;2082551;28;20025;-76
2024/01/20 04:44:28;;;;;;;14.75;8.35;;;-1.70;99.90;;;;;;2100730;28;20031;-74
2024/01/20 04:45:28;;;;;;;17.13;9.00;;;-1.70;99.90;;;;;;2097817;28;20566;-73
2024/01/20 04:46:29;;;;;;;13.93;8.30;;;-1.70;99.90;;;;;;2102323;28;20486;-74
2024/01/20 04:47:31;;;;;;;15.40;8.15;;;-1.60;99.90;;;;;;2097619;28;20510;-74
2024/01/20 04:48:31;;;;;;;15.52;8.73;;;-1.70;99.90;;;;;;2093341;28;20028;-73
2024/01/20 04:49:32;;;;;;;15.55;8.30;;;-1.70;99.90;;;;;;2097440;28;20507;-73
2024/01/20 04:50:33;;;;;;;15.30;8.43;;;-1.80;99.90;;;;;;2101836;28;20069;-73
2024/01/20 04:51:33;;;;;;;16.00;8.70;;;-1.80;99.90;;;;;;2085357;28;20143;-73
2024/01/20 04:52:34;;;;;;;15.30;8.52;;;-1.80;99.90;;;;;;2089007;28;20104;-73
2024/01/20 04:53:34;;;;;;;13.98;8.60;;;-1.90;99.90;;;;;;2096808;28;20025;-74
2024/01/20 04:54:35;;;;;;;15.82;8.45;;;-1.90;99.90;;;;;;2088253;28;20028;-72
2024/01/20 04:55:36;;;;;;;17.02;8.77;;;-1.90;99.90;;;;;;2080912;28;20174;-73
2024/01/20 04:56:36;;;;;;;15.30;8.98;;;-1.90;99.90;;;;;;2091080;28;20095;-73
2024/01/20 04:57:37;;;;;;;16.10;8.57;;;-1.90;99.90;;;;;;2092896;28;20029;-73
2024/01/20 04:58:37;;;;;;;15.25;8.07;;;-1.90;99.90;;;;;;2088934;28;20778;-73
2024/01/20 04:59:38;;;;;;;17.83;8.40;;;-1.80;99.90;;;;;;2078352;28;20463;-73
2024/01/20 05:00:39;;;;;;;16.52;9.00;;;-1.80;99.90;;;;;;2072710;28;20018;-73
2024/01/20 05:01:39;;;;;;;16.33;8.70;;;-1.80;99.90;;;;;;2087754;28;20060;-73
2024/01/20 05:02:40;;;;;;;15.10;8.40;;;-1.80;99.90;;;;;;2068719;28;20088;-73
2024/01/20 05:03:41;;;;;;;15.90;8.48;;;-1.80;99.90;;;;;;2085948;28;20039;-72
2024/01/20 05:04:42;;;;;;;14.85;8.52;;;-1.80;99.90;;;;;;2085888;28;20048;-73
2024/01/20 05:05:42;;;;;;;14.52;8.55;;;-1.80;99.90;;;;;;2074779;28;20125;-73
2024/01/20 05:06:48;;;;;;;15.23;8.57;;;-1.80;99.90;;;;;;2079995;28;20049;-73
2024/01/20 05:07:49;;;;;;;14.30;8.15;;;-1.90;99.90;;;;;;2090462;28;20073;-72
2024/01/20 05:08:49;;;;;;;16.23;8.32;;;-1.90;99.90;;;;;;2081865;28;20025;-73
2024/01/20 05:09:50;;;;;;;19.15;9.00;;;-2.00;99.90;;;;;;2089222;28;20036;-73
2024/01/20 05:10:50;;;;;;;18.55;9.00;;;-1.90;99.90;;;;;;2091239;28;20401;-73
2024/01/20 05:11:51;;;;;;;15.27;8.77;;;-1.90;99.90;;;;;;2089109;28;20033;-73
2024/01/20 05:12:52;;;;;;;20.40;9.55;;;-1.90;99.90;;;;;;2088906;28;20090;-75
2024/01/20 05:13:52;;;;;;;16.98;8.80;;;-1.90;99.90;;;;;;2076832;28;20570;-72